Terminal Aerodrome Forecast
Issued by NWS

Home | Current Version | Previous Version | Text Only | Print | Product List | Glossary On
Versions: 1 2 3 4 5 6 7 8 9 10 11 12
000
FTUS43 KFGF 032320
TAFDVL
TAF
KDVL 032320Z 0400/0424 36018KT P6SM SKC
     FM040200 01009KT P6SM SKC
     FM040700 VRB06KT P6SM SKC
     FM042000 24006KT P6SM FEW250=

USA.gov is the U.S. government's official web portal to all federal, state and local government web resources and services.